Time;durP1;ratioP1;P1;durP2;ratioP2;P2;SDS_P1;SDS_P2;PMS_P1;PMS_P2;Temp;Humidity;BMP_temperature;BMP_pressure;BME280_temperature;BME280_humidity;BME280_pressure;Samples;Min_cycle;Max_cycle;Signal;HPM_P1;HPM_P2
2022/03/24 00:01:27;;;;;;;5.33;3.40;;;;;0.90;97790.00;;;;5052528;28;20427;-69
2022/03/24 00:04:16;;;;;;;3.77;1.80;;;;;0.80;97792.00;;;;5052983;28;20500;-69
2022/03/24 00:07:06;;;;;;;4.20;3.47;;;;;1.10;97794.00;;;;5052657;28;21346;-69
2022/03/24 00:09:55;;;;;;;1.80;1.70;;;;;0.50;97785.00;;;;5051878;28;20439;-69
2022/03/24 00:12:45;;;;;;;5.07;3.30;;;;;0.90;97784.00;;;;5051146;28;20482;-69
2022/03/24 00:15:34;;;;;;;10.00;3.27;;;;;0.70;97782.00;;;;5052503;28;20423;-70
2022/03/24 00:18:23;;;;;;;6.87;4.03;;;;;0.60;97772.00;;;;5051905;28;20434;-69
2022/03/24 00:21:13;;;;;;;5.03;3.97;;;;;1.00;97771.00;;;;5052165;28;20424;-69
2022/03/24 00:24:02;;;;;;;2.50;2.30;;;;;0.70;97768.00;;;;5050670;28;20438;-69
2022/03/24 00:26:51;;;;;;;4.00;1.77;;;;;0.50;97776.00;;;;5051242;28;20821;-70
2022/03/24 00:29:41;;;;;;;1.57;1.47;;;;;0.80;97769.00;;;;5052446;28;20432;-70
2022/03/24 00:32:30;;;;;;;5.07;3.07;;;;;1.10;97775.00;;;;5051347;28;20488;-69
2022/03/24 00:35:21;;;;;;;7.93;4.13;;;;;1.30;97774.00;;;;5051629;28;20419;-69
2022/03/24 00:38:10;;;;;;;3.73;3.30;;;;;0.60;97765.00;;;;5052395;28;20808;-69
2022/03/24 00:41:00;;;;;;;7.60;4.20;;;;;0.80;97762.00;;;;5049781;28;20954;-69
2022/03/24 00:43:49;;;;;;;7.33;4.77;;;;;0.60;97762.00;;;;5051414;28;20436;-69
2022/03/24 00:46:40;;;;;;;4.17;3.10;;;;;0.30;97747.00;;;;5051188;28;20451;-69
2022/03/24 00:49:29;;;;;;;4.57;3.87;;;;;-0.10;97753.00;;;;5041954;28;20431;-69
2022/03/24 00:52:18;;;;;;;2.03;1.93;;;;;0.20;97748.00;;;;5037227;28;20813;-69
2022/03/24 00:55:08;;;;;;;5.30;2.63;;;;;0.60;97760.00;;;;5051725;28;20431;-70
2022/03/24 00:57:57;;;;;;;6.50;3.97;;;;;1.30;97773.00;;;;5049786;28;20985;-70
2022/03/24 01:00:46;;;;;;;4.83;3.67;;;;;1.60;97755.00;;;;5046287;28;20432;-70
2022/03/24 01:03:38;;;;;;;4.83;3.93;;;;;1.90;97762.00;;;;5050712;28;20472;-69
2022/03/24 01:06:27;;;;;;;3.93;3.50;;;;;1.10;97742.00;;;;5050876;28;20455;-69
2022/03/24 01:09:16;;;;;;;6.13;4.27;;;;;0.70;97735.00;;;;5043792;28;20419;-69
2022/03/24 01:12:06;;;;;;;5.13;3.87;;;;;0.10;97725.00;;;;5049111;28;20423;-70
2022/03/24 01:14:56;;;;;;;3.23;2.13;;;;;0.00;97731.00;;;;5050962;28;20771;-69
2022/03/24 01:17:47;;;;;;;4.10;3.10;;;;;0.20;97718.00;;;;5050727;28;20443;-69
2022/03/24 01:20:38;;;;;;;2.40;2.00;;;;;0.10;97720.00;;;;5050886;28;20500;-69
2022/03/24 01:23:28;;;;;;;5.00;3.53;;;;;0.30;97721.00;;;;5050543;28;20453;-69
2022/03/24 01:26:18;;;;;;;4.67;3.73;;;;;0.40;97720.00;;;;5050551;28;20466;-70
2022/03/24 01:29:08;;;;;;;4.93;4.23;;;;;0.60;97718.00;;;;5051348;28;20427;-69
2022/03/24 01:31:57;;;;;;;2.30;2.10;;;;;0.10;97713.00;;;;5050741;28;20429;-69
2022/03/24 01:34:46;;;;;;;3.83;3.30;;;;;0.30;97716.00;;;;5051163;28;20459;-68
2022/03/24 01:37:37;;;;;;;3.03;2.10;;;;;0.20;97724.00;;;;5050834;28;20454;-69
2022/03/24 01:40:26;;;;;;;5.97;4.00;;;;;0.20;97707.00;;;;5047534;28;20458;-69
2022/03/24 01:43:17;;;;;;;4.53;3.13;;;;;0.20;97706.00;;;;5049517;28;20430;-69
2022/03/24 01:46:07;;;;;;;6.83;4.87;;;;;0.20;97710.00;;;;5050508;28;20485;-69
2022/03/24 01:48:56;;;;;;;5.57;2.83;;;;;0.20;97706.00;;;;5049727;28;20941;-69
2022/03/24 01:51:45;;;;;;;6.00;4.07;;;;;0.60;97697.00;;;;5049738;28;20440;-70
2022/03/24 01:54:38;;;;;;;7.00;4.80;;;;;0.20;97699.00;;;;5050093;28;20537;-70
2022/03/24 01:57:29;;;;;;;4.97;4.47;;;;;0.40;97698.00;;;;5049442;28;20463;-69
2022/03/24 02:00:19;;;;;;;5.37;4.07;;;;;0.70;97701.00;;;;5050483;28;20430;-69
2022/03/24 02:03:08;;;;;;;7.63;4.90;;;;;0.70;97700.00;;;;5049492;28;20807;-69
2022/03/24 02:05:57;;;;;;;5.27;3.93;;;;;0.40;97698.00;;;;5050335;28;20447;-69
2022/03/24 02:08:47;;;;;;;4.07;2.97;;;;;0.40;97690.00;;;;5046286;28;20423;-69
2022/03/24 02:11:37;;;;;;;4.47;4.00;;;;;0.50;97686.00;;;;5049968;28;20440;-69
2022/03/24 02:14:28;;;;;;;2.43;1.73;;;;;0.20;97674.00;;;;5049617;28;20467;-69
2022/03/24 02:17:20;;;;;;;3.80;2.40;;;;;0.40;97684.00;;;;5048739;28;20454;-70
2022/03/24 02:20:10;;;;;;;4.30;3.90;;;;;0.10;97683.00;;;;5050171;28;20805;-70
2022/03/24 02:23:01;;;;;;;6.67;5.03;;;;;0.70;97669.00;;;;5049685;28;20435;-69
2022/03/24 02:25:52;;;;;;;7.27;4.37;;;;;0.00;97679.00;;;;5049206;28;20427;-69
2022/03/24 02:28:42;;;;;;;3.83;3.37;;;;;-0.20;97665.00;;;;5049984;28;20966;-70
2022/03/24 02:31:31;;;;;;;10.33;4.33;;;;;0.40;97676.00;;;;5049463;28;20469;-69
2022/03/24 02:34:47;;;;;;;4.90;3.90;;;;;0.50;97678.00;;;;5050006;28;20463;-69
2022/03/24 02:37:36;;;;;;;5.27;3.37;;;;;-0.20;97662.00;;;;5049733;28;20455;-69
2022/03/24 02:40:27;;;;;;;6.87;4.03;;;;;0.10;97666.00;;;;5046497;28;20436;-69
2022/03/24 02:43:19;;;;;;;3.47;2.70;;;;;0.30;97673.00;;;;5047632;28;20427;-69
2022/03/24 02:46:08;;;;;;;6.50;4.20;;;;;0.40;97674.00;;;;5050632;28;20439;-67
2022/03/24 02:48:57;;;;;;;4.97;3.07;;;;;0.70;97675.00;;;;5049734;28;20515;-69
2022/03/24 02:51:46;;;;;;;5.87;3.97;;;;;1.10;97675.00;;;;5048853;28;20813;-69
2022/03/24 02:54:36;;;;;;;5.40;4.10;;;;;0.80;97675.00;;;;5049335;28;20858;-69
2022/03/24 02:57:26;;;;;;;7.87;3.67;;;;;0.40;97674.00;;;;5049199;28;20455;-69
2022/03/24 03:00:16;;;;;;;4.60;3.63;;;;;0.10;97671.00;;;;5049484;28;20969;-70
2022/03/24 03:03:06;;;;;;;4.27;3.73;;;;;0.40;97670.00;;;;5049010;28;20455;-70
2022/03/24 03:05:57;;;;;;;7.57;4.23;;;;;0.80;97680.00;;;;5048571;28;20444;-69
2022/03/24 03:08:46;;;;;;;6.37;3.67;;;;;1.00;97675.00;;;;5045562;28;20434;-70
2022/03/24 03:11:35;;;;;;;4.60;4.20;;;;;1.20;97680.00;;;;5049148;28;20423;-70
2022/03/24 03:14:26;;;;;;;6.17;4.07;;;;;1.30;97684.00;;;;5049517;28;20471;-70
2022/03/24 03:17:16;;;;;;;5.50;3.27;;;;;1.20;97684.00;;;;5049532;28;20451;-70
2022/03/24 03:20:07;;;;;;;8.63;3.97;;;;;0.60;97681.00;;;;5049500;28;20428;-70
2022/03/24 03:22:56;;;;;;;4.90;3.70;;;;;1.20;97683.00;;;;5047852;28;20946;-70
2022/03/24 03:25:45;;;;;;;8.77;4.47;;;;;1.40;97686.00;;;;5048658;28;20431;-70
2022/03/24 03:28:34;;;;;;;4.57;3.83;;;;;0.80;97693.00;;;;5048869;28;20946;-70
2022/03/24 03:31:25;;;;;;;4.37;3.90;;;;;0.60;97679.00;;;;5049292;28;20948;-70
2022/03/24 03:34:15;;;;;;;6.37;3.87;;;;;0.50;97693.00;;;;5048786;28;20459;-70
2022/03/24 03:37:04;;;;;;;3.63;2.90;;;;;0.30;97681.00;;;;5048300;28;20443;-70
2022/03/24 03:39:53;;;;;;;6.40;4.53;;;;;0.30;97687.00;;;;5045474;28;20438;-69
2022/03/24 03:42:42;;;;;;;4.63;3.83;;;;;0.40;97680.00;;;;5047943;28;20802;-69
2022/03/24 03:45:31;;;;;;;7.90;3.63;;;;;0.50;97683.00;;;;5049269;28;20445;-69
2022/03/24 03:48:22;;;;;;;5.17;3.60;;;;;0.40;97679.00;;;;5048608;28;20484;-69
2022/03/24 03:51:11;;;;;;;4.70;4.00;;;;;0.00;97685.00;;;;5048980;28;20431;-69
2022/03/24 03:54:00;;;;;;;5.40;4.30;;;;;0.00;97679.00;;;;5048258;28;20459;-69
2022/03/24 03:56:49;;;;;;;5.67;3.97;;;;;0.00;97679.00;;;;5049076;28;20448;-69
2022/03/24 03:59:39;;;;;;;6.53;4.20;;;;;0.10;97684.00;;;;5049223;28;20435;-70
2022/03/24 04:02:28;;;;;;;3.80;2.50;;;;;-0.10;97672.00;;;;5047904;28;20435;-69
2022/03/24 04:05:25;;;;;;;8.83;4.40;;;;;0.50;97686.00;;;;5048976;28;20454;-70
2022/03/24 04:08:15;;;;;;;6.47;3.80;;;;;0.60;97684.00;;;;5048765;28;20434;-69
2022/03/24 04:11:07;;;;;;;8.37;3.50;;;;;0.50;97683.00;;;;5047586;28;20431;-69
2022/03/24 04:13:56;;;;;;;6.20;3.90;;;;;0.40;97682.00;;;;5048740;28;20423;-70
2022/03/24 04:16:45;;;;;;;4.43;3.50;;;;;0.30;97679.00;;;;5038876;28;20450;-69
2022/03/24 04:19:34;;;;;;;5.43;3.93;;;;;0.70;97687.00;;;;5051917;28;20423;-70
2022/03/24 04:22:25;;;;;;;4.13;3.73;;;;;1.20;97692.00;;;;5051972;28;20427;-70
2022/03/24 04:25:14;;;;;;;5.20;3.17;;;;;1.40;97691.00;;;;5051699;28;20954;-69
2022/03/24 04:28:07;;;;;;;5.70;4.30;;;;;0.80;97692.00;;;;5051463;28;20427;-69
2022/03/24 04:30:56;;;;;;;6.33;4.47;;;;;-0.30;97681.00;;;;5051740;28;20443;-69
2022/03/24 04:33:45;;;;;;;5.50;3.90;;;;;0.40;97689.00;;;;5052239;28;20440;-69
2022/03/24 04:36:34;;;;;;;4.00;3.40;;;;;0.90;97690.00;;;;5052029;28;20451;-69
2022/03/24 04:39:24;;;;;;;0.93;0.93;;;;;-0.20;97683.00;;;;5047084;28;20455;-70
2022/03/24 04:42:13;;;;;;;3.93;3.43;;;;;0.30;97678.00;;;;5051041;28;20428;-69
2022/03/24 04:45:02;;;;;;;4.63;3.10;;;;;0.60;97680.00;;;;5051859;28;20446;-69
2022/03/24 04:47:52;;;;;;;6.50;3.70;;;;;0.50;97684.00;;;;5051447;28;20455;-69
2022/03/24 04:50:41;;;;;;;6.70;3.77;;;;;0.40;97680.00;;;;5050862;28;20810;-69
2022/03/24 04:53:30;;;;;;;5.10;3.10;;;;;0.00;97685.00;;;;5051009;28;20427;-69
2022/03/24 04:56:21;;;;;;;4.27;3.47;;;;;0.10;97678.00;;;;5051357;28;20471;-69
2022/03/24 04:59:10;;;;;;;4.27;3.83;;;;;-0.30;97677.00;;;;5051712;28;20423;-69
2022/03/24 05:01:59;;;;;;;5.67;3.97;;;;;-0.10;97685.00;;;;5048987;28;20443;-69
2022/03/24 05:04:48;;;;;;;5.47;3.30;;;;;-0.30;97675.00;;;;5048267;28;20466;-69
2022/03/24 05:07:37;;;;;;;5.73;3.83;;;;;0.00;97671.00;;;;5045442;28;21093;-69
2022/03/24 05:10:27;;;;;;;2.90;2.60;;;;;-0.10;97691.00;;;;5044555;28;20423;-69
2022/03/24 05:13:18;;;;;;;4.70;3.70;;;;;-0.40;97675.00;;;;5049317;28;20439;-69
2022/03/24 05:16:07;;;;;;;7.63;3.40;;;;;0.10;97683.00;;;;5047579;28;20479;-69
2022/03/24 05:18:56;;;;;;;7.20;3.60;;;;;-0.20;97679.00;;;;5050208;28;20486;-68
2022/03/24 05:21:45;;;;;;;6.73;3.40;;;;;-0.50;97678.00;;;;5048406;28;20416;-69
2022/03/24 05:24:34;;;;;;;5.23;3.30;;;;;0.00;97684.00;;;;5050239;28;20802;-68
2022/03/24 05:27:23;;;;;;;3.30;2.83;;;;;0.50;97696.00;;;;5051049;28;20451;-69
2022/03/24 05:30:14;;;;;;;6.17;3.57;;;;;0.40;97687.00;;;;5050462;28;20442;-68
2022/03/24 05:33:04;;;;;;;5.47;3.73;;;;;0.40;97684.00;;;;5055698;28;20470;-68
2022/03/24 05:35:53;;;;;;;6.57;3.97;;;;;0.70;97697.00;;;;5051191;28;20482;-68
2022/03/24 05:38:42;;;;;;;4.37;3.83;;;;;1.10;97698.00;;;;5051261;28;20424;-69
2022/03/24 05:41:31;;;;;;;5.83;3.37;;;;;0.80;97704.00;;;;5044625;28;20438;-68
2022/03/24 05:44:20;;;;;;;3.57;3.30;;;;;0.80;97690.00;;;;5045446;28;20830;-68
2022/03/24 05:47:11;;;;;;;3.47;3.17;;;;;1.10;97699.00;;;;5051456;28;20442;-68
2022/03/24 05:50:00;;;;;;;3.10;2.80;;;;;1.20;97699.00;;;;5047787;28;20439;-69
2022/03/24 05:52:49;;;;;;;14.00;8.23;;;;;1.20;97699.00;;;;5056121;28;20439;-69
2022/03/24 05:55:40;;;;;;;14.13;7.70;;;;;1.60;97704.00;;;;5044723;28;20798;-69
2022/03/24 05:58:29;;;;;;;12.23;7.77;;;;;1.90;97700.00;;;;5049549;28;20800;-68
2022/03/24 06:01:20;;;;;;;6.40;4.30;;;;;2.10;97699.00;;;;5050253;28;20810;-68
2022/03/24 06:04:15;;;;;;;6.07;3.53;;;;;2.10;97686.00;;;;5047161;28;20432;-69
2022/03/24 06:07:07;;;;;;;3.20;2.80;;;;;1.80;97694.00;;;;5053314;28;20434;-68
2022/03/24 06:09:58;;;;;;;4.33;2.87;;;;;1.60;97698.00;;;;5043759;28;20796;-69
2022/03/24 06:12:47;;;;;;;5.43;3.47;;;;;2.20;97700.00;;;;5047788;28;20432;-69
2022/03/24 06:15:36;;;;;;;12.83;3.20;;;;;2.30;97701.00;;;;5046499;28;20466;-69
2022/03/24 06:18:25;;;;;;;5.10;3.37;;;;;2.90;97700.00;;;;5049717;28;20522;-69
2022/03/24 06:21:16;;;;;;;5.03;2.80;;;;;3.10;97692.00;;;;5047158;28;20439;-69
2022/03/24 06:24:06;;;;;;;7.90;3.70;;;;;3.80;97698.00;;;;5049148;28;20427;-70
2022/03/24 06:26:55;;;;;;;3.70;2.90;;;;;3.80;97699.00;;;;5041500;28;20448;-69
2022/03/24 06:29:44;;;;;;;4.47;3.67;;;;;3.70;97699.00;;;;5044023;28;20429;-69
2022/03/24 06:32:33;;;;;;;5.00;3.33;;;;;4.00;97698.00;;;;5047595;28;20423;-69
2022/03/24 06:35:22;;;;;;;9.90;3.67;;;;;3.50;97692.00;;;;5048115;28;20461;-69
2022/03/24 06:38:13;;;;;;;4.97;3.40;;;;;3.80;97702.00;;;;5049542;28;20431;-69
2022/03/24 06:41:03;;;;;;;4.50;3.30;;;;;4.00;97703.00;;;;5037281;28;20439;-70
2022/03/24 06:43:55;;;;;;;4.03;3.17;;;;;4.40;97705.00;;;;5047880;28;20431;-66
2022/03/24 06:46:44;;;;;;;6.43;3.17;;;;;5.20;97712.00;;;;5045880;28;20455;-69
2022/03/24 06:49:35;;;;;;;3.97;3.03;;;;;5.70;97715.00;;;;5044161;28;20471;-69
2022/03/24 06:52:24;;;;;;;6.53;3.33;;;;;5.90;97708.00;;;;5044773;28;20446;-71
2022/03/24 06:55:14;;;;;;;8.53;2.67;;;;;6.40;97716.00;;;;5056531;28;20428;-69
2022/03/24 06:58:03;;;;;;;5.03;3.27;;;;;5.80;97709.00;;;;5049541;28;20450;-69
2022/03/24 07:00:53;;;;;;;6.40;4.37;;;;;5.60;97693.00;;;;5051943;28;20219;-69
2022/03/24 07:03:42;;;;;;;4.73;3.40;;;;;5.80;97698.00;;;;5055660;28;20204;-70
2022/03/24 07:06:32;;;;;;;6.80;3.30;;;;;6.00;97701.00;;;;5055568;28;20215;-70
2022/03/24 07:09:21;;;;;;;6.00;3.77;;;;;6.40;97704.00;;;;5047394;28;20586;-69
2022/03/24 07:12:12;;;;;;;5.10;3.63;;;;;6.70;97699.00;;;;5049311;28;20192;-69
2022/03/24 07:15:01;;;;;;;7.63;4.00;;;;;6.90;97698.00;;;;5050160;28;20200;-69
2022/03/24 07:17:50;;;;;;;6.23;3.17;;;;;7.30;97711.00;;;;5050594;28;20698;-69
2022/03/24 07:20:39;;;;;;;5.23;2.93;;;;;7.80;97702.00;;;;5044330;28;20281;-67
2022/03/24 07:23:28;;;;;;;8.30;3.03;;;;;8.50;97702.00;;;;5042827;28;20208;-69
2022/03/24 07:26:17;;;;;;;6.10;2.77;;;;;9.10;97715.00;;;;5043564;28;20221;-69
2022/03/24 07:29:10;;;;;;;5.37;3.27;;;;;9.50;97709.00;;;;5049982;28;20211;-69
2022/03/24 07:32:00;;;;;;;10.27;4.17;;;;;9.60;97711.00;;;;5051473;28;20319;-70
2022/03/24 07:34:50;;;;;;;11.17;4.43;;;;;9.80;97711.00;;;;5048301;28;20212;-70
2022/03/24 07:37:39;;;;;;;8.63;3.47;;;;;10.00;97712.00;;;;5044926;28;20251;-69
2022/03/24 07:40:28;;;;;;;8.70;3.57;;;;;10.10;97704.00;;;;5049648;28;20217;-70
2022/03/24 07:43:17;;;;;;;9.80;3.80;;;;;10.50;97704.00;;;;5047621;28;20204;-70
2022/03/24 07:46:08;;;;;;;10.70;3.47;;;;;10.60;97708.00;;;;5042161;28;20243;-69
2022/03/24 07:48:57;;;;;;;6.53;3.03;;;;;10.90;97707.00;;;;5046197;28;20252;-70
2022/03/24 07:51:46;;;;;;;6.53;3.47;;;;;11.30;97705.00;;;;5049824;28;20560;-70
2022/03/24 07:54:46;;;;;;;4.27;2.77;;;;;11.40;97701.00;;;;5044521;28;20675;-70
2022/03/24 07:57:35;;;;;;;8.73;2.80;;;;;11.70;97698.00;;;;5040446;28;20326;-69
2022/03/24 08:00:24;;;;;;;3.70;2.53;;;;;11.70;97699.00;;;;5050711;28;20213;-70
2022/03/24 08:03:16;;;;;;;5.57;2.50;;;;;12.00;97719.00;;;;5051788;28;20220;-70
2022/03/24 08:06:05;;;;;;;9.97;3.37;;;;;12.10;97716.00;;;;5051872;28;20228;-70
2022/03/24 08:08:55;;;;;;;4.70;2.70;;;;;12.20;97719.00;;;;5041751;28;20684;-69
2022/03/24 08:11:44;;;;;;;6.10;2.63;;;;;12.20;97706.00;;;;5061526;28;20588;-70
2022/03/24 08:14:33;;;;;;;4.43;3.17;;;;;12.40;97702.00;;;;5060145;28;20201;-70
2022/03/24 08:17:22;;;;;;;3.73;3.07;;;;;12.60;97707.00;;;;5053396;28;20232;-70
2022/03/24 08:20:13;;;;;;;6.73;3.37;;;;;12.50;97703.00;;;;5051941;28;20196;-70
2022/03/24 08:23:03;;;;;;;6.50;2.93;;;;;12.50;97690.00;;;;5052109;28;20201;-64
2022/03/24 08:25:53;;;;;;;12.03;3.23;;;;;12.80;97703.00;;;;5051713;28;20670;-66
2022/03/24 08:28:42;;;;;;;10.07;3.43;;;;;12.90;97695.00;;;;5052489;28;20209;-65
2022/03/24 08:31:33;;;;;;;4.37;2.90;;;;;13.00;97711.00;;;;5051384;28;20208;-66
2022/03/24 08:34:22;;;;;;;5.10;2.60;;;;;13.00;97706.00;;;;5053044;28;20263;-67
2022/03/24 08:37:12;;;;;;;6.17;2.50;;;;;13.20;97710.00;;;;5049653;28;20699;-68
2022/03/24 08:40:01;;;;;;;10.90;3.97;;;;;13.30;97707.00;;;;5046232;28;20204;-69
2022/03/24 08:42:50;;;;;;;5.50;2.53;;;;;13.60;97704.00;;;;5047064;28;20201;-69
2022/03/24 08:45:40;;;;;;;4.33;2.77;;;;;13.60;97704.00;;;;5050377;28;20228;-68
2022/03/24 08:48:29;;;;;;;5.07;2.43;;;;;13.60;97708.00;;;;5051165;28;20212;-64
2022/03/24 08:51:18;;;;;;;9.27;2.90;;;;;14.00;97702.00;;;;5044657;28;20201;-67
2022/03/24 08:54:08;;;;;;;5.87;2.63;;;;;14.30;97693.00;;;;5048361;28;20193;-69
2022/03/24 08:56:58;;;;;;;4.17;2.63;;;;;14.80;97691.00;;;;5047143;28;20224;-69
2022/03/24 08:59:48;;;;;;;5.70;2.37;;;;;14.90;97691.00;;;;5048757;28;20200;-68
2022/03/24 09:02:37;;;;;;;7.53;2.80;;;;;15.20;97689.00;;;;5044631;28;20699;-68
2022/03/24 09:05:26;;;;;;;6.33;3.33;;;;;15.30;97689.00;;;;5044367;28;20200;-67
2022/03/24 09:08:15;;;;;;;3.83;2.33;;;;;15.40;97698.00;;;;5047747;28;20231;-65
2022/03/24 09:11:05;;;;;;;3.50;2.60;;;;;15.60;97682.00;;;;5050657;28;20219;-69
2022/03/24 09:13:54;;;;;;;4.13;2.23;;;;;15.90;97691.00;;;;5046224;28;20197;-68
2022/03/24 09:16:43;;;;;;;3.43;2.27;;;;;16.00;97683.00;;;;5048359;28;20232;-68
2022/03/24 09:19:36;;;;;;;6.90;2.83;;;;;16.30;97694.00;;;;5046566;28;20208;-68
2022/03/24 09:22:25;;;;;;;5.30;2.83;;;;;16.20;97690.00;;;;5049752;28;20201;-69
2022/03/24 09:25:15;;;;;;;6.47;1.90;;;;;16.70;97686.00;;;;5060372;28;20212;-69
2022/03/24 09:28:06;;;;;;;5.57;2.30;;;;;16.80;97683.00;;;;5051805;28;20208;-68
2022/03/24 09:30:57;;;;;;;6.63;2.40;;;;;17.10;97685.00;;;;5047492;28;20205;-66
2022/03/24 09:33:46;;;;;;;5.53;2.57;;;;;17.40;97683.00;;;;5046665;28;20201;-66
2022/03/24 09:36:36;;;;;;;2.20;2.00;;;;;17.60;97692.00;;;;5043686;28;20721;-67
2022/03/24 09:39:25;;;;;;;5.93;2.50;;;;;18.00;97691.00;;;;5043443;28;20241;-67
2022/03/24 09:42:14;;;;;;;2.80;2.40;;;;;18.40;97676.00;;;;5049471;28;20207;-68
2022/03/24 09:45:06;;;;;;;3.53;2.20;;;;;18.90;97682.00;;;;5056777;28;20567;-67
2022/03/24 09:47:56;;;;;;;5.57;2.50;;;;;19.20;97662.00;;;;5057768;28;20223;-68
2022/03/24 09:50:46;;;;;;;2.80;1.80;;;18.00;41.70;19.70;97669.00;;;;5051116;28;20213;-68
2022/03/24 09:53:39;;;;;;;3.33;2.07;;;17.90;42.00;19.90;97670.00;;;;5049859;28;20575;-68
2022/03/24 09:56:29;;;;;;;3.53;1.90;;;18.20;41.10;20.00;97675.00;;;;5050027;28;20286;-68
2022/03/24 09:59:18;;;;;;;3.93;2.03;;;18.50;40.60;20.30;97666.00;;;;5050072;28;20556;-68
2022/03/24 10:02:09;;;;;;;3.00;1.93;;;18.70;40.30;20.70;97664.00;;;;5049653;28;20706;-68
2022/03/24 10:05:01;;;;;;;3.63;2.40;;;19.00;40.00;21.00;97659.00;;;;5050868;28;20197;-68
2022/03/24 10:07:52;;;;;;;5.07;2.33;;;19.30;39.50;21.20;97660.00;;;;5050020;28;20229;-68
2022/03/24 10:10:44;;;;;;;2.00;1.80;;;19.50;40.00;21.50;97661.00;;;;5050441;28;20211;-68
2022/03/24 10:13:44;;;;;;;2.13;1.80;;;19.80;39.90;21.70;97662.00;;;;5049176;28;20238;-68
2022/03/24 10:16:44;;;;;;;4.83;2.27;;;20.00;39.00;21.60;97654.00;;;;5040489;28;20232;-69
2022/03/24 10:19:35;;;;;;;3.93;2.23;;;20.30;38.70;22.00;97657.00;;;;5053583;28;20693;-68
2022/03/24 10:22:24;;;;;;;5.20;1.90;;;20.50;38.30;22.10;97654.00;;;;5050546;28;20212;-69
2022/03/24 10:25:21;;;;;;;2.63;1.67;;;20.70;39.10;22.30;97660.00;;;;5049571;28;20574;-69
2022/03/24 10:28:12;;;;;;;1.60;1.50;;;20.80;37.90;22.80;97659.00;;;;5040058;28;20208;-69
2022/03/24 10:31:03;;;;;;;4.47;1.80;;;21.00;37.60;22.40;97646.00;;;;5050111;28;20205;-68
2022/03/24 10:33:52;;;;;;;1.97;1.67;;;21.20;37.10;22.80;97649.00;;;;5052475;28;20667;-68
2022/03/24 10:36:43;;;;;;;3.20;1.93;;;21.20;36.90;23.20;97645.00;;;;5055014;28;20614;-69
2022/03/24 10:39:31;;;;;;;4.27;1.50;;;21.50;36.90;21.70;97635.00;;;;5045826;28;20208;-68
2022/03/24 10:42:23;;;;;;;5.13;1.80;;;21.50;33.40;22.80;97629.00;;;;5049702;28;20211;-69
2022/03/24 10:45:17;;;;;;;2.93;1.60;;;21.60;35.20;23.00;97621.00;;;;5049246;28;20201;-69
2022/03/24 10:48:07;;;;;;;1.40;1.30;;;21.70;34.60;23.30;97631.00;;;;5049738;28;20713;-69
2022/03/24 10:50:57;;;;;;;2.57;1.30;;;21.90;34.20;23.50;97624.00;;;;5049668;28;20254;-69
2022/03/24 10:53:47;;;;;;;2.53;2.33;;;22.10;33.90;23.50;97620.00;;;;5048139;28;20200;-66
2022/03/24 10:56:40;;;;;;;2.93;2.03;;;22.30;33.30;23.80;97621.00;;;;5044792;28;20274;-69
2022/03/24 10:59:33;;;;;;;2.23;1.53;;;22.40;33.60;24.10;97619.00;;;;5048484;28;20212;-68
2022/03/24 11:02:23;;;;;;;2.87;1.50;;;22.70;33.60;24.60;97612.00;;;;5048605;28;20235;-68
2022/03/24 11:05:13;;;;;;;4.73;1.03;;;22.90;32.10;23.70;97593.00;;;;5049205;28;20196;-66
2022/03/24 11:08:08;;;;;;;2.33;1.57;;;22.90;30.80;24.70;97605.00;;;;5043342;28;20232;-67
2022/03/24 11:10:58;;;;;;;1.60;1.40;;;23.10;31.30;25.10;97591.00;;;;5043854;28;20201;-68
2022/03/24 11:13:51;;;;;;;1.33;1.00;;;23.50;31.10;25.40;97599.00;;;;5042412;28;20207;-68
2022/03/24 11:16:41;;;;;;;2.20;1.47;;;23.90;31.00;25.80;97592.00;;;;5048466;28;20608;-68
2022/03/24 11:19:30;;;;;;;1.37;1.27;;;24.20;31.10;25.20;97585.00;;;;5048592;28;20207;-68
2022/03/24 11:22:19;;;;;;;0.83;0.83;;;24.50;30.30;24.60;97591.00;;;;5042355;28;20200;-68
2022/03/24 11:25:09;;;;;;;1.00;0.90;;;24.50;29.50;26.60;97579.00;;;;5047976;28;20896;-68
2022/03/24 11:27:59;;;;;;;1.97;1.10;;;24.70;30.60;27.20;97577.00;;;;5049149;28;20238;-69
2022/03/24 11:30:48;;;;;;;1.03;0.93;;;25.10;30.60;26.30;97570.00;;;;5052423;28;20228;-66
2022/03/24 11:33:45;;;;;;;2.30;1.10;;;25.30;29.30;27.10;97572.00;;;;5047666;28;20589;-66
2022/03/24 11:36:34;;;;;;;2.00;1.00;;;25.40;29.60;26.90;97574.00;;;;5047340;28;20273;-66
2022/03/24 11:39:23;;;;;;;0.80;0.70;;;25.60;29.70;26.70;97570.00;;;;5052738;28;20207;-67
2022/03/24 11:42:12;;;;;;;2.30;1.10;;;25.70;29.20;26.90;97563.00;;;;5051647;28;20214;-67
2022/03/24 11:45:08;;;;;;;2.67;1.40;;;25.90;29.10;27.20;97552.00;;;;5047743;28;20424;-67
2022/03/24 11:48:06;;;;;;;1.27;0.90;;;26.10;29.00;27.40;97543.00;;;;5050669;28;20708;-66
2022/03/24 11:50:56;;;;;;;1.30;1.10;;;26.30;28.40;28.30;97552.00;;;;5050859;28;20571;-67
2022/03/24 11:53:45;;;;;;;1.20;0.93;;;26.50;28.70;27.80;97545.00;;;;5051367;28;20195;-67
2022/03/24 11:56:36;;;;;;;0.85;0.85;;;26.80;28.10;28.50;97543.00;;;;5050890;28;20231;-66
2022/03/24 11:59:24;;;;;;;;;;;26.70;28.50;28.90;97531.00;;;;5044653;28;20508;-66
2022/03/24 12:02:23;;;;;;;;;;;27.10;28.30;27.90;97529.00;;;;5044355;28;19927;-68
2022/03/24 12:05:12;;;;;;;;;;;26.90;27.30;28.90;97529.00;;;;5049134;28;19970;-68
2022/03/24 12:08:06;;;;;;;;;;;27.20;28.00;28.70;97515.00;;;;5052949;28;19921;-67
2022/03/24 12:10:55;;;;;;;;;;;27.40;27.40;28.20;97514.00;;;;5050521;28;19931;-67
2022/03/24 12:13:55;;;;;;;;;;;27.30;27.00;28.50;97530.00;;;;5050801;28;20031;-67
2022/03/24 12:16:45;;;;;;;;;;;27.20;27.40;26.30;97502.00;;;;5049280;28;19967;-68
2022/03/24 12:19:53;;;;;;;;;;;27.40;26.60;28.50;97516.00;;;;5049146;28;20372;-68
2022/03/24 12:22:45;;;;;;;;;;;27.10;27.30;29.10;97504.00;;;;5044688;28;19920;-68
2022/03/24 12:25:35;;;;;;;;;;;27.20;27.40;29.00;97509.00;;;;5052776;28;19921;-68
2022/03/24 12:28:27;;;;;;;;;;;27.60;27.50;28.40;97495.00;;;;5052756;28;20307;-69
2022/03/24 12:31:18;;;;;;;;;;;27.60;27.00;29.90;97494.00;;;;5052734;28;19920;-68
2022/03/24 12:34:14;;;;;;;;;;;27.80;27.60;28.20;97493.00;;;;5051851;28;19920;-68
2022/03/24 12:37:04;;;;;;;;;;;27.50;26.80;29.50;97497.00;;;;5052101;28;19921;-67
2022/03/24 12:40:11;;;;;;;;;;;27.80;26.90;30.80;97499.00;;;;5052432;28;20313;-67
2022/03/24 12:43:02;;;;;;;1.60;0.70;;;28.30;26.80;31.80;97487.00;;;;5047221;28;20402;-67
2022/03/24 12:45:51;;;;;;;2.45;0.80;;;28.80;27.10;30.60;97486.00;;;;5051028;28;20980;-69
2022/03/24 12:48:52;;;;;;;0.93;0.80;;;29.20;26.40;30.40;97489.00;;;;5052086;28;20618;-67
2022/03/24 12:51:52;;;;;;;2.03;0.98;;;29.00;26.40;30.20;97482.00;;;;5050925;28;20196;-67
2022/03/24 12:54:48;;;;;;;1.20;1.05;;;28.80;26.80;31.30;97481.00;;;;5050389;28;20315;-68
2022/03/24 12:57:37;;;;;;;3.10;0.73;;;29.00;26.40;32.10;97485.00;;;;5051176;28;20215;-68
2022/03/24 13:00:27;;;;;;;1.10;0.95;;;29.50;27.10;31.00;97477.00;;;;5050308;28;20231;-69
2022/03/24 13:03:17;;;;;;;1.58;0.90;;;29.80;26.40;31.70;97469.00;;;;5044235;28;20208;-68
2022/03/24 13:06:06;;;;;;;2.30;0.85;;;29.80;26.40;32.40;97469.00;;;;5049615;28;20260;-68
2022/03/24 13:09:18;;;;;;;1.33;1.02;;;30.00;26.90;31.70;97467.00;;;;5048202;28;20211;-68
2022/03/24 13:12:12;;;;;;;1.83;0.93;;;30.10;26.10;31.60;97471.00;;;;5049027;28;20200;-69
2022/03/24 13:15:02;;;;;;;2.05;0.60;;;29.90;26.40;32.40;97466.00;;;;5051694;28;20207;-69
2022/03/24 13:17:53;;;;;;;0.93;0.90;;;30.00;26.10;33.50;97467.00;;;;5051501;28;20601;-69
2022/03/24 13:20:45;;;;;;;1.02;0.95;;;;;33.50;97462.00;;;;5051346;28;20200;-69
2022/03/24 13:23:34;;;;;;;0.77;0.70;;;31.10;26.20;33.70;97470.00;;;;5049861;28;20246;-69
2022/03/24 13:26:23;;;;;;;1.42;1.17;;;31.40;26.20;32.60;97463.00;;;;5049309;28;20220;-67
2022/03/24 13:29:13;;;;;;;1.30;1.20;;;31.50;25.60;33.50;97466.00;;;;5042539;28;20208;-67
2022/03/24 13:32:14;;;;;;;1.10;0.90;;;31.50;25.70;32.70;97463.00;;;;5050253;28;20192;-67
2022/03/24 13:35:05;;;;;;;1.27;1.17;;;31.50;25.40;32.90;97461.00;;;;5051494;28;20200;-67
2022/03/24 13:37:57;;;;;;;1.10;0.98;;;31.40;25.50;32.10;97445.00;;;;5050542;28;20228;-67
2022/03/24 13:40:57;;;;;;;1.10;1.00;;;31.10;25.90;29.60;97442.00;;;;5042382;28;20221;-68
2022/03/24 13:43:46;;;;;;;1.88;0.88;;;30.70;25.10;31.70;97451.00;;;;5041198;28;20207;-68
2022/03/24 13:46:37;;;;;;;1.42;1.33;;;30.50;25.40;31.40;97444.00;;;;5050765;28;20228;-68
2022/03/24 13:49:28;;;;;;;1.10;1.00;;;30.30;25.30;30.90;97436.00;;;;5049847;28;20616;-68
2022/03/24 13:52:39;;;;;;;3.55;1.52;;;30.00;25.60;31.20;97434.00;;;;5043156;28;20675;-68